Time;durP1;ratioP1;P1;durP2;ratioP2;P2;SDS_P1;SDS_P2;PMS_P1;PMS_P2;Temp;Humidity;BMP_temperature;BMP_pressure;BME280_temperature;BME280_humidity;BME280_pressure;Samples;Min_cycle;Max_cycle;Signal;HPM_P1;HPM_P2
2020/12/22 00:01:17;;;;;;;20.88;12.68;;;;;;;-2.60;87.12;100617.13;1748626;82;21373;-72
2020/12/22 00:03:45;;;;;;;19.85;12.58;;;;;;;-2.65;86.41;100620.88;1748475;81;21156;-67
2020/12/22 00:06:13;;;;;;;19.23;11.65;;;;;;;-2.84;86.74;100627.19;1748377;81;21164;-71
2020/12/22 00:08:40;;;;;;;17.73;11.78;;;;;;;-3.05;87.25;100627.40;1763047;79;21273;-68
2020/12/22 00:11:08;;;;;;;16.62;10.75;;;;;;;-3.18;87.69;100624.47;1777450;80;21119;-70
2020/12/22 00:13:35;;;;;;;19.37;12.70;;;;;;;-3.27;88.55;100621.62;1777497;81;21139;-73
2020/12/22 00:16:03;;;;;;;16.57;10.90;;;;;;;-3.36;88.95;100621.15;1711219;84;21336;-69
2020/12/22 00:18:30;;;;;;;17.62;11.08;;;;;;;-3.40;89.54;100614.94;1777669;81;21601;-67
2020/12/22 00:20:58;;;;;;;19.40;11.35;;;;;;;-3.38;89.64;100607.14;1778428;80;21301;-69
2020/12/22 00:23:26;;;;;;;21.62;11.33;;;;;;;-3.36;89.81;100608.17;1777624;81;21115;-72
2020/12/22 00:25:54;;;;;;;20.25;13.05;;;;;;;-3.32;89.83;100602.64;1777670;81;21285;-66
2020/12/22 00:28:21;;;;;;;25.95;13.58;;;;;;;-3.31;90.06;100603.52;1751456;80;21159;-67
2020/12/22 00:30:49;;;;;;;24.23;12.63;;;;;;;-3.31;90.22;100599.73;1748711;79;21186;-67
2020/12/22 00:33:17;;;;;;;21.57;12.60;;;;;;;-3.31;90.24;100598.13;1748550;81;21202;-71
2020/12/22 00:35:45;;;;;;;18.23;11.28;;;;;;;-3.36;90.42;100593.38;1748449;82;21167;-69
2020/12/22 00:38:13;;;;;;;21.23;12.10;;;;;;;-3.31;90.42;100588.03;1712867;82;21276;-71
2020/12/22 00:40:40;;;;;;;20.30;10.80;;;;;;;-3.25;90.07;100594.39;1748663;81;21151;-68
2020/12/22 00:43:08;;;;;;;20.90;11.83;;;;;;;-3.29;89.60;100599.52;1712538;84;21150;-70
2020/12/22 00:45:35;;;;;;;19.25;12.30;;;;;;;-3.35;89.73;100595.17;1748596;81;21135;-71
2020/12/22 00:48:03;;;;;;;21.37;11.48;;;;;;;-3.43;89.96;100589.42;1748429;81;21139;-68
2020/12/22 00:50:30;;;;;;;24.47;12.93;;;;;;;-3.47;90.39;100585.21;1712770;82;21142;-68
2020/12/22 00:52:59;;;;;;;19.92;11.12;;;;;;;-3.44;90.49;100584.22;1748655;82;21656;-73
2020/12/22 00:55:26;;;;;;;23.87;13.70;;;;;;;-3.33;90.16;100584.47;1748489;81;21277;-70
2020/12/22 00:57:54;;;;;;;19.00;11.53;;;;;;;-3.34;90.20;100583.94;1758157;81;21131;-69
2020/12/22 01:00:22;;;;;;;25.65;12.93;;;;;;;-3.24;90.21;100589.84;1779305;81;21155;-70
2020/12/22 01:02:50;;;;;;;21.20;11.88;;;;;;;-3.15;90.21;100575.55;1779242;80;21557;-70
2020/12/22 01:05:18;;;;;;;19.17;12.47;;;;;;;-2.96;89.65;100589.06;1776481;79;21162;-69
2020/12/22 01:07:45;;;;;;;23.52;14.40;;;;;;;-2.75;88.93;100581.64;1777677;81;21167;-71
2020/12/22 01:10:13;;;;;;;24.87;13.95;;;;;;;-2.66;88.00;100578.69;1711274;83;21175;-69
2020/12/22 01:12:43;;;;;;;27.87;14.78;;;;;;;-2.56;87.55;100596.44;1771792;80;21525;-69
2020/12/22 01:15:11;;;;;;;29.37;15.33;;;;;;;-2.69;87.03;100592.31;1747474;82;21254;-67
2020/12/22 01:17:39;;;;;;;23.65;14.15;;;;;;;-2.81;87.67;100587.42;1748428;82;21628;-70
2020/12/22 01:20:07;;;;;;;27.30;14.65;;;;;;;-2.78;87.94;100592.36;1748833;82;21292;-71
2020/12/22 01:22:35;;;;;;;25.25;14.28;;;;;;;-2.75;87.54;100586.69;1748452;82;21175;-67
2020/12/22 01:25:03;;;;;;;30.75;16.05;;;;;;;-2.84;87.63;100586.39;1749039;81;21154;-70
2020/12/22 01:27:31;;;;;;;34.73;16.75;;;;;;;-2.97;88.07;100584.78;1779419;81;21154;-67
2020/12/22 01:29:58;;;;;;;38.35;18.27;;;;;;;-3.02;88.19;100586.38;1779155;81;21151;-66
2020/12/22 01:32:26;;;;;;;41.98;21.00;;;;;;;-3.11;88.52;100587.68;1779280;79;21228;-69
2020/12/22 01:34:53;;;;;;;36.93;19.12;;;;;;;-3.18;88.93;100570.19;1779279;81;21147;-71
2020/12/22 01:37:21;;;;;;;42.23;20.75;;;;;;;-3.18;88.66;100579.03;1779330;79;21171;-65
2020/12/22 01:39:49;;;;;;;40.38;21.17;;;;;;;-3.20;88.79;100570.45;1774563;79;21168;-70
2020/12/22 01:42:16;;;;;;;44.53;19.75;;;;;;;-3.22;88.79;100568.16;1765707;80;21148;-69
2020/12/22 01:44:44;;;;;;;39.25;18.92;;;;;;;-3.23;88.71;100582.77;1761744;81;21559;-66
2020/12/22 01:47:12;;;;;;;42.62;20.82;;;;;;;-3.25;88.83;100574.20;1727494;82;21198;-68
2020/12/22 01:49:40;;;;;;;36.90;21.05;;;;;;;-3.29;89.03;100578.06;1764518;81;21125;-68
2020/12/22 01:52:08;;;;;;;46.33;21.42;;;;;;;-3.30;89.27;100572.13;1761830;79;21259;-67
2020/12/22 01:54:35;;;;;;;40.30;21.20;;;;;;;-3.18;89.51;100571.45;1763623;79;21154;-71
2020/12/22 01:57:11;;;;;;;35.45;17.92;;;;;;;-3.01;89.03;100567.56;1748373;81;21181;-67
2020/12/22 01:59:43;;;;;;;34.58;18.05;;;;;;;-3.07;87.97;100567.91;1747562;81;21207;-70
2020/12/22 02:02:10;;;;;;;39.35;16.10;;;;;;;-3.21;88.13;100572.06;1748450;82;21173;-67
2020/12/22 02:04:38;;;;;;;35.90;18.55;;;;;;;-3.22;88.18;100553.02;1734599;81;21662;-67
2020/12/22 02:07:12;;;;;;;27.05;14.80;;;;;;;-3.19;88.09;100564.64;1733236;81;21151;-65
2020/12/22 02:09:40;;;;;;;34.30;18.05;;;;;;;-3.12;88.05;100560.66;1732466;83;22200;-72
2020/12/22 02:12:08;;;;;;;27.35;15.63;;;;;;;-3.01;87.88;100552.41;1731543;81;21195;-69
2020/12/22 02:14:36;;;;;;;29.87;16.62;;;;;;;-2.87;87.42;100552.40;1733246;83;21554;-66
2020/12/22 02:17:04;;;;;;;30.88;16.85;;;;;;;-2.84;87.15;100554.81;1732981;81;21594;-66
2020/12/22 02:19:31;;;;;;;28.75;15.50;;;;;;;-2.85;87.16;100553.40;1733054;81;21148;-69
2020/12/22 02:21:59;;;;;;;25.27;14.35;;;;;;;-2.81;86.93;100539.42;1733145;81;21297;-69
2020/12/22 02:24:26;;;;;;;26.68;14.90;;;;;;;-2.78;86.54;100562.42;1733246;81;21152;-66
2020/12/22 02:26:54;;;;;;;25.12;12.35;;;;;;;-2.87;86.68;100544.44;1733057;81;21187;-65
2020/12/22 02:29:22;;;;;;;24.63;12.98;;;;;;;-2.84;86.66;100564.03;1733337;81;21559;-68
2020/12/22 02:31:50;;;;;;;24.32;14.53;;;;;;;-2.92;86.47;100564.99;1733220;81;21136;-66
2020/12/22 02:34:18;;;;;;;21.27;11.25;;;;;;;-2.97;86.61;100555.73;1733267;81;21186;-67
2020/12/22 02:36:48;;;;;;;21.55;12.15;;;;;;;-3.00;86.35;100560.52;1733066;83;21309;-66
2020/12/22 02:39:16;;;;;;;20.97;12.18;;;;;;;-3.04;86.60;100555.05;1733060;81;21337;-64
2020/12/22 02:41:43;;;;;;;17.73;10.58;;;;;;;-3.02;86.67;100560.75;1733023;81;21191;-68
2020/12/22 02:44:11;;;;;;;16.67;10.08;;;;;;;-2.99;86.16;100559.75;1733273;81;21176;-68
2020/12/22 02:46:39;;;;;;;17.95;9.80;;;;;;;-2.99;86.00;100558.48;1733026;81;21160;-67
2020/12/22 02:49:07;;;;;;;14.95;8.98;;;;;;;-2.98;86.01;100555.20;1733339;81;21159;-65
2020/12/22 02:51:35;;;;;;;16.77;9.60;;;;;;;-2.97;85.90;100550.69;1733410;81;21176;-69
2020/12/22 02:54:03;;;;;;;17.42;10.35;;;;;;;-2.98;86.21;100550.15;1733264;81;21281;-68
2020/12/22 02:56:30;;;;;;;17.60;10.28;;;;;;;-2.95;85.97;100556.77;1733348;81;21160;-67
2020/12/22 02:58:58;;;;;;;17.10;11.63;;;;;;;-2.99;86.17;100548.77;1733313;81;21279;-67
2020/12/22 03:01:26;;;;;;;18.55;11.08;;;;;;;-2.99;86.43;100552.17;1733435;81;21188;-66
2020/12/22 03:03:54;;;;;;;23.30;13.35;;;;;;;-2.96;86.53;100545.25;1740189;81;21554;-68
2020/12/22 03:06:23;;;;;;;21.40;11.97;;;;;;;-2.89;86.44;100550.98;1748814;82;21161;-68
2020/12/22 03:08:51;;;;;;;22.30;12.82;;;;;;;-2.89;86.35;100547.58;1748733;82;21278;-68
2020/12/22 03:11:18;;;;;;;25.23;13.78;;;;;;;-2.95;86.57;100541.96;1749052;82;21594;-66
2020/12/22 03:13:46;;;;;;;20.52;11.70;;;;;;;-2.98;86.68;100535.37;1748593;81;21156;-70
2020/12/22 03:16:18;;;;;;;21.37;13.25;;;;;;;-2.99;86.92;100534.50;1748718;81;21591;-67
2020/12/22 03:18:46;;;;;;;21.95;12.15;;;;;;;-3.01;87.05;100535.11;1748735;81;21152;-69
2020/12/22 03:21:16;;;;;;;20.12;12.43;;;;;;;-3.01;87.13;100521.22;1748592;81;21121;-70
2020/12/22 03:23:44;;;;;;;21.55;13.48;;;;;;;-3.02;87.00;100521.98;1748566;82;21164;-66
2020/12/22 03:26:12;;;;;;;15.93;10.40;;;;;;;-3.03;87.15;100529.91;1748692;81;21294;-69
2020/12/22 03:28:39;;;;;;;21.95;11.75;;;;;;;-3.06;86.51;100533.05;1748726;82;21168;-67
2020/12/22 03:31:07;;;;;;;23.27;12.82;;;;;;;-3.04;86.71;100531.05;1748629;81;21330;-66
2020/12/22 03:33:34;;;;;;;29.23;14.58;;;;;;;-3.08;86.80;100528.61;1748628;81;21283;-67
2020/12/22 03:36:02;;;;;;;28.85;15.00;;;;;;;-3.08;87.19;100532.40;1748705;82;21125;-66
2020/12/22 03:38:31;;;;;;;37.48;15.78;;;;;;;-3.07;87.40;100532.55;1748537;81;21156;-66
2020/12/22 03:40:59;;;;;;;27.67;14.07;;;;;;;-3.07;87.43;100533.81;1748760;81;21176;-65
2020/12/22 03:43:26;;;;;;;32.93;14.38;;;;;;;-3.03;87.26;100545.06;1748764;81;21172;-69
2020/12/22 03:45:57;;;;;;;27.82;14.03;;;;;;;-3.04;87.19;100528.15;1748612;82;21145;-68
2020/12/22 03:48:25;;;;;;;38.38;16.37;;;;;;;-3.00;87.23;100537.78;1748650;81;21208;-64
2020/12/22 03:50:54;;;;;;;32.75;14.78;;;;;;;-2.99;87.15;100538.66;1748608;82;21575;-67
2020/12/22 03:53:21;;;;;;;32.73;14.68;;;;;;;-2.98;86.98;100530.33;1748819;81;21559;-65
2020/12/22 03:55:49;;;;;;;31.07;15.15;;;;;;;-3.04;87.12;100528.15;1748647;82;21164;-71
2020/12/22 03:58:17;;;;;;;35.13;16.37;;;;;;;-3.05;87.29;100513.76;1748504;81;21149;-68
2020/12/22 04:00:45;;;;;;;32.90;15.50;;;;;;;-3.05;87.30;100517.55;1748742;81;21188;-65
2020/12/22 04:03:13;;;;;;;31.45;14.58;;;;;;;-3.05;87.47;100520.08;1748866;82;21141;-63
2020/12/22 04:05:40;;;;;;;34.25;15.58;;;;;;;-3.03;87.65;100526.50;1756725;80;21710;-68
2020/12/22 04:08:09;;;;;;;38.17;18.65;;;;;;;-2.99;87.66;100520.98;1756447;80;21156;-65
2020/12/22 04:10:36;;;;;;;36.65;16.27;;;;;;;-3.00;87.66;100520.45;1756457;80;21176;-68
2020/12/22 04:13:04;;;;;;;41.13;18.52;;;;;;;-2.99;87.81;100514.30;1756463;80;21291;-68
2020/12/22 04:15:32;;;;;;;30.52;15.90;;;;;;;-2.97;87.77;100527.07;1756464;80;21121;-68
2020/12/22 04:17:59;;;;;;;29.52;14.43;;;;;;;-2.99;87.79;100517.20;1756593;82;21167;-70
2020/12/22 04:20:29;;;;;;;30.25;17.10;;;;;;;-3.02;87.84;100527.91;1754927;80;21291;-68
2020/12/22 04:22:56;;;;;;;34.45;16.27;;;;;;;-3.07;88.04;100531.67;1756558;80;21274;-71
2020/12/22 04:25:26;;;;;;;34.78;17.75;;;;;;;-3.10;88.43;100523.82;1756449;80;21124;-66
2020/12/22 04:27:54;;;;;;;31.20;16.00;;;;;;;-3.09;88.55;100523.06;1756513;82;21278;-65
2020/12/22 04:30:22;;;;;;;30.85;14.87;;;;;;;-3.07;88.74;100517.39;1756752;80;21282;-64
2020/12/22 04:32:49;;;;;;;29.45;15.00;;;;;;;-3.07;88.85;100511.47;1756462;82;21140;-66
2020/12/22 04:35:17;;;;;;;29.48;15.85;;;;;;;-3.07;88.76;100517.78;1756545;81;21278;-68
2020/12/22 04:37:45;;;;;;;33.18;17.57;;;;;;;-3.15;88.67;100517.09;1756789;82;21366;-66
2020/12/22 04:40:13;;;;;;;35.73;18.45;;;;;;;-3.18;89.09;100509.59;1756524;81;21265;-70
2020/12/22 04:42:43;;;;;;;34.75;17.67;;;;;;;-3.19;89.15;100521.72;1756400;80;21343;-68
2020/12/22 04:45:11;;;;;;;33.88;17.82;;;;;;;-3.19;89.21;100516.67;1756465;80;21148;-67
2020/12/22 04:47:42;;;;;;;35.20;17.67;;;;;;;-3.22;89.20;100513.88;1756440;80;21152;-69
2020/12/22 04:50:12;;;;;;;31.15;16.10;;;;;;;-3.24;89.37;100514.11;1756699;81;21128;-69
2020/12/22 04:52:45;;;;;;;33.20;16.77;;;;;;;-3.25;89.42;100511.08;1738021;82;21152;-66
2020/12/22 04:55:14;;;;;;;25.30;12.88;;;;;;;-3.22;89.59;100501.25;1756878;80;21246;-70
2020/12/22 04:57:49;;;;;;;22.75;12.15;;;;;;;-3.19;89.14;100509.09;1756404;80;21313;-70
2020/12/22 05:00:19;;;;;;;23.80;12.23;;;;;;;-3.21;88.84;100514.38;1756009;80;21152;-68
2020/12/22 05:02:50;;;;;;;24.65;12.98;;;;;;;-3.25;88.57;100517.02;1756649;80;21733;-70
2020/12/22 05:05:19;;;;;;;20.77;11.93;;;;;;;-3.24;88.39;100518.77;1738388;81;21574;-68
2020/12/22 05:07:47;;;;;;;19.85;11.20;;;;;;;-3.25;88.22;100509.82;1733161;81;21307;-66
2020/12/22 05:10:15;;;;;;;17.75;10.08;;;;;;;-3.21;88.24;100500.49;1733120;81;21172;-67
2020/12/22 05:12:43;;;;;;;16.30;8.85;;;;;;;-3.11;87.90;100485.41;1733204;81;21294;-68
2020/12/22 05:15:11;;;;;;;20.32;9.33;;;;;;;-3.08;87.10;100500.83;1733011;81;21128;-70
2020/12/22 05:17:45;;;;;;;15.35;9.25;;;;;;;-3.14;87.23;100483.89;1733198;81;21578;-66
2020/12/22 05:20:15;;;;;;;14.98;8.93;;;;;;;-3.09;87.20;100494.91;1733138;81;21302;-70
2020/12/22 05:22:47;;;;;;;15.00;8.58;;;;;;;-2.94;87.11;100507.13;1732987;81;21314;-66
2020/12/22 05:25:19;;;;;;;20.62;8.93;;;;;;;-2.81;86.47;100504.94;1733255;81;21143;-69
2020/12/22 05:27:51;;;;;;;17.80;10.07;;;;;;;-2.81;86.10;100491.42;1733583;81;21172;-65
2020/12/22 05:30:20;;;;;;;15.53;9.60;;;;;;;-2.77;86.35;100501.02;1733330;81;21306;-66
2020/12/22 05:32:52;;;;;;;19.02;11.15;;;;;;;-2.68;86.21;100495.53;1733300;81;21741;-70
2020/12/22 05:35:20;;;;;;;17.87;10.25;;;;;;;-2.56;86.28;100499.14;1733302;81;21164;-70
2020/12/22 05:37:51;;;;;;;15.28;8.90;;;;;;;-2.48;85.68;100507.00;1733317;81;21578;-67
2020/12/22 05:40:20;;;;;;;17.65;10.53;;;;;;;-2.48;85.25;100515.84;1733146;81;21175;-68
2020/12/22 05:42:48;;;;;;;18.42;11.75;;;;;;;-2.62;85.58;100513.39;1733314;81;21519;-66
2020/12/22 05:45:15;;;;;;;21.87;11.63;;;;;;;-2.68;85.96;100518.27;1733067;81;21136;-67
2020/12/22 05:47:45;;;;;;;15.32;9.58;;;;;;;-2.81;86.29;100507.84;1733181;81;21614;-69
2020/12/22 05:50:13;;;;;;;17.27;9.75;;;;;;;-2.86;86.45;100499.47;1733262;81;21167;-69
2020/12/22 05:52:43;;;;;;;18.95;9.15;;;;;;;-2.79;86.39;100509.75;1733238;81;21567;-68
2020/12/22 05:55:11;;;;;;;15.30;8.30;;;;;;;-2.91;86.45;100504.87;1733323;81;21136;-67
2020/12/22 05:57:39;;;;;;;14.63;8.45;;;;;;;-2.93;86.62;100500.94;1733058;81;21192;-69
2020/12/22 06:00:17;;;;;;;17.07;10.23;;;;;;;-2.97;86.84;100487.55;1733402;81;21558;-68
2020/12/22 06:02:47;;;;;;;16.02;9.60;;;;;;;-2.98;87.08;100501.28;1733177;81;21318;-66
2020/12/22 06:05:15;;;;;;;18.77;9.60;;;;;;;-3.04;87.36;100500.75;1733178;81;21614;-70
2020/12/22 06:07:45;;;;;;;15.48;8.70;;;;;;;-3.09;87.75;100494.02;1733193;81;21164;-67
2020/12/22 06:10:16;;;;;;;18.25;10.65;;;;;;;-3.12;87.92;100503.86;1732969;81;21591;-67
2020/12/22 06:12:43;;;;;;;20.27;12.15;;;;;;;-3.06;88.28;100486.71;1733068;81;21124;-66
2020/12/22 06:15:11;;;;;;;21.20;12.07;;;;;;;-2.88;88.17;100493.39;1733222;81;21160;-70
2020/12/22 06:17:42;;;;;;;18.73;10.82;;;;;;;-2.71;87.57;100489.83;1733138;82;21144;-69
2020/12/22 06:20:11;;;;;;;14.35;8.93;;;;;;;-2.65;87.08;100497.05;1733567;81;21180;-65
2020/12/22 06:22:38;;;;;;;13.95;9.00;;;;;;;-2.73;86.34;100492.98;1763422;80;21291;-67
2020/12/22 06:25:06;;;;;;;14.58;9.38;;;;;;;-2.81;86.59;100497.36;1770390;80;21607;-70
2020/12/22 06:27:34;;;;;;;19.27;10.72;;;;;;;-2.94;87.08;100484.41;1742635;80;21591;-68
2020/12/22 06:30:02;;;;;;;19.45;11.78;;;;;;;-2.90;87.38;100487.34;1768286;80;21330;-67
2020/12/22 06:32:30;;;;;;;18.98;10.90;;;;;;;-2.78;87.06;100479.05;1770440;80;21122;-69
2020/12/22 06:35:30;;;;;;;24.60;12.05;;;;;;;-2.65;86.99;100479.37;1768682;80;21114;-67
2020/12/22 06:37:59;;;;;;;19.52;11.57;;;;;;;-2.52;86.37;100486.38;1753885;81;21731;-66
2020/12/22 06:40:53;;;;;;;23.55;11.33;;;;;;;-2.41;85.97;100476.45;1754067;82;21177;-72
2020/12/22 06:43:43;;;;;;;16.77;9.40;;;;;;;-2.34;85.54;100478.23;1753940;82;21140;-68
2020/12/22 06:46:36;;;;;;;30.48;16.55;;;;;;;-2.35;85.50;100460.92;1753946;81;21603;-72
2020/12/22 06:49:08;;;;;;;26.60;13.40;;;;;;;-2.34;85.79;100474.09;1747554;82;21690;-72
2020/12/22 06:51:39;;;;;;;23.38;13.35;;;;;;;-2.25;85.43;100477.77;1754203;80;21249;-68
2020/12/22 06:54:17;;;;;;;26.15;12.70;;;;;;;-2.19;85.43;100468.17;1753923;82;21287;-70
2020/12/22 06:56:47;;;;;;;26.20;15.08;;;;;;;-2.12;85.13;100468.33;1754161;80;21575;-72
2020/12/22 06:59:44;;;;;;;23.57;14.23;;;;;;;-2.04;85.03;100467.33;1754113;82;21547;-72
2020/12/22 07:02:39;;;;;;;21.33;13.40;;;;;;;-2.02;84.92;100462.91;1754029;82;21153;-69
2020/12/22 07:05:05;;;;;;;26.80;13.53;;;;;;;-1.89;84.69;100467.73;1751525;81;21708;-68
2020/12/22 07:07:58;;;;;;;23.12;13.10;;;;;;;-1.89;84.44;100457.63;1749031;81;21093;-68
2020/12/22 07:10:28;;;;;;;20.32;11.93;;;;;;;-1.88;84.29;100456.50;1748619;81;21304;-66
2020/12/22 07:12:57;;;;;;;28.23;15.35;;;;;;;-1.95;84.39;100450.79;1748786;82;21571;-66
2020/12/22 07:15:37;;;;;;;24.95;13.58;;;;;;;-1.91;84.76;100457.86;1748530;81;21710;-66
2020/12/22 07:18:09;;;;;;;33.25;16.17;;;;;;;-1.77;84.65;100452.33;1748489;81;21298;-65
2020/12/22 07:20:40;;;;;;;31.25;15.48;;;;;;;-1.67;84.13;100448.53;1737713;81;21579;-66
2020/12/22 07:23:11;;;;;;;26.00;14.37;;;;;;;-1.65;84.13;100447.02;1748840;81;21260;-66
2020/12/22 07:25:40;;;;;;;25.43;12.90;;;;;;;-1.58;84.16;100444.60;1748568;81;21370;-66
2020/12/22 07:28:11;;;;;;;23.18;12.58;;;;;;;-1.46;83.94;100438.41;1748457;81;21148;-66
2020/12/22 07:30:39;;;;;;;24.32;13.62;;;;;;;-1.46;83.30;100432.08;1748755;81;21184;-66
2020/12/22 07:33:07;;;;;;;21.40;12.33;;;;;;;-1.47;83.40;100427.79;1748642;82;21177;-66
2020/12/22 07:35:35;;;;;;;22.42;13.45;;;;;;;-1.42;83.29;100425.25;1748805;81;21294;-66
2020/12/22 07:38:09;;;;;;;18.77;11.35;;;;;;;-1.41;83.09;100425.75;1748561;81;21169;-66
2020/12/22 07:40:40;;;;;;;23.38;13.22;;;;;;;-1.42;82.96;100424.87;1748289;81;21136;-65
2020/12/22 07:43:11;;;;;;;24.10;13.65;;;;;;;-1.50;83.21;100428.78;1748517;81;21180;-66
2020/12/22 07:45:51;;;;;;;22.32;12.15;;;;;;;-1.62;83.51;100422.34;1748646;81;21270;-66
2020/12/22 07:48:19;;;;;;;19.90;11.12;;;;;;;-1.64;83.87;100415.88;1748558;81;21302;-65
2020/12/22 07:50:53;;;;;;;20.00;12.47;;;;;;;-1.68;83.86;100432.86;1748463;82;21345;-66
2020/12/22 07:53:22;;;;;;;21.37;11.35;;;;;;;-1.80;84.28;100426.77;1748731;82;21125;-67
2020/12/22 07:55:49;;;;;;;20.05;11.18;;;;;;;-1.82;84.54;100421.57;1748623;81;21546;-66
2020/12/22 07:58:17;;;;;;;17.42;10.95;;;;;;;-1.89;84.75;100431.05;1748641;82;21227;-66
2020/12/22 08:00:45;;;;;;;19.62;10.15;;;;;;;-1.99;85.09;100430.27;1748552;81;21153;-66
2020/12/22 08:03:17;;;;;;;20.10;11.70;;;;;;;-2.10;85.57;100432.29;1748411;82;21295;-66
2020/12/22 08:06:02;;;;;;;21.90;10.78;;;;;;;-2.14;85.89;100421.78;1748936;81;21149;-66
2020/12/22 08:08:31;;;;;;;18.32;10.20;;;;;;;-2.01;86.00;100426.75;1748625;82;21149;-66
2020/12/22 08:10:59;;;;;;;16.85;10.50;;;;;;;-1.99;85.41;100424.33;1748590;81;21160;-66
2020/12/22 08:13:34;;;;;;;19.62;11.40;;;;;;;-1.97;85.73;100428.77;1748755;81;21270;-66
2020/12/22 08:16:03;;;;;;;17.98;9.78;;;;;;;-1.87;85.66;100420.69;1748602;82;21152;-66
2020/12/22 08:18:34;;;;;;;18.87;10.60;;;;;;;-1.81;85.44;100422.06;1748412;81;21302;-66
2020/12/22 08:21:03;;;;;;;19.50;11.30;;;;;;;-1.79;85.32;100424.35;1748699;82;21230;-66
2020/12/22 08:23:32;;;;;;;20.90;11.70;;;;;;;-1.88;85.78;100418.55;1748576;82;21149;-66
2020/12/22 08:26:01;;;;;;;21.82;11.63;;;;;;;-1.75;85.84;100416.27;1748497;81;21152;-66
2020/12/22 08:28:28;;;;;;;18.17;10.32;;;;;;;-1.65;85.67;100406.53;1748703;81;21372;-66
2020/12/22 08:31:14;;;;;;;21.48;10.78;;;;;;;-1.47;85.50;100403.73;1748425;81;21580;-67
2020/12/22 08:33:42;;;;;;;20.72;10.85;;;;;;;-1.37;84.77;100396.13;1748793;81;21523;-66
2020/12/22 08:36:11;;;;;;;19.05;10.63;;;;;;;-1.29;84.36;100396.36;1748689;82;21153;-66
2020/12/22 08:38:39;;;;;;;18.42;10.72;;;;;;;-1.29;83.83;100393.83;1748403;81;21151;-66
2020/12/22 08:41:20;;;;;;;20.15;10.15;;;;;;;-1.33;83.59;100382.55;1748494;81;21136;-65
2020/12/22 08:43:51;;;;;;;18.63;11.37;;;;;;;-1.31;83.57;100385.22;1748906;82;21144;-65
2020/12/22 08:46:20;;;;;;;18.77;11.25;;;;;;;-1.32;83.93;100392.32;1748545;82;21395;-66
2020/12/22 08:48:48;;;;;;;18.35;10.98;;;;;;;-1.22;83.65;100382.17;1748373;81;21239;-65
2020/12/22 08:51:26;;;;;;;19.80;10.68;;;;;;;-1.27;83.63;100399.00;1748398;81;21164;-65
2020/12/22 08:53:54;;;;;;;20.82;11.40;;;;;;;-1.39;83.78;100380.80;1748546;82;21270;-66
2020/12/22 08:56:24;;;;;;;21.52;10.60;;;;;;;-1.34;84.22;100374.45;1748608;81;21154;-65
2020/12/22 08:59:03;;;;;;;19.00;10.38;;;;;;;-1.22;83.67;100374.57;1748477;81;21172;-66
2020/12/22 09:01:46;;;;;;;22.73;12.35;;;;;;;-1.25;83.51;100378.09;1748653;82;21156;-66
2020/12/22 09:04:15;;;;;;;25.00;12.15;;;;;;;-1.27;83.64;100364.45;1748598;82;21121;-66
2020/12/22 09:06:47;;;;;;;27.13;13.72;;;;;;;-1.28;83.82;100371.53;1754267;80;21175;-66
2020/12/22 09:09:19;;;;;;;26.55;13.88;;;;;;;-1.21;83.99;100364.93;1756555;81;21164;-65
2020/12/22 09:11:47;;;;;;;24.82;14.40;;;;;;;-1.04;83.70;100362.84;1756367;81;21279;-66
2020/12/22 09:14:19;;;;;;;26.23;14.07;;;;;;;-0.89;83.55;100360.25;1756708;80;21535;-66
2020/12/22 09:16:57;;;;;;;27.50;14.03;;;;;;;-0.75;82.91;100366.02;1756604;82;21176;-66
2020/12/22 09:19:29;;;;;;;23.10;11.53;;;;;;;-0.63;82.74;100370.30;1756550;80;21143;-65
2020/12/22 09:22:01;;;;;;;23.30;13.43;;;;;;;-0.72;82.11;100365.38;1755280;80;21259;-65
2020/12/22 09:24:31;;;;;;;23.60;12.73;;;;;;;-0.85;82.28;100354.67;1756733;82;21148;-66
2020/12/22 09:27:03;;;;;;;25.72;13.30;;;;;;;-1.03;82.67;100345.23;1756463;80;21105;-66
2020/12/22 09:29:36;;;;;;;19.87;11.95;;;;;;;-1.06;83.09;100339.94;1756810;80;21133;-65
2020/12/22 09:32:05;;;;;;;18.90;11.20;;;;;;;-0.98;83.28;100344.34;1756545;82;21271;-67
2020/12/22 09:34:37;;;;;;;19.83;11.20;;;;;;;-0.84;83.13;100347.94;1756633;80;21164;-66
2020/12/22 09:37:08;;;;;;;18.50;11.00;;;;;;;-0.75;82.76;100348.28;1756613;80;21270;-66
2020/12/22 09:39:38;;;;;;;23.38;11.05;;;;;;;-0.91;82.93;100336.46;1756547;81;21152;-67
2020/12/22 09:42:06;;;;;;;20.75;12.70;;;;;;;-0.96;83.40;100339.89;1756570;81;21563;-67
2020/12/22 09:44:35;;;;;;;21.77;12.00;;;;;;;-0.95;83.56;100340.77;1756727;81;21156;-66
2020/12/22 09:47:04;;;;;;;20.15;11.60;;;;;;;-1.10;83.68;100337.91;1756577;82;21153;-66
2020/12/22 09:49:33;;;;;;;20.12;11.93;;;;;;;-1.23;84.27;100325.92;1756417;81;21182;-66
2020/12/22 09:52:01;;;;;;;22.15;12.82;;;;;;;-1.21;84.73;100326.94;1756668;81;21694;-66
2020/12/22 09:54:28;;;;;;;25.15;12.13;;;;;;;-1.22;84.89;100324.27;1756390;82;21160;-66
2020/12/22 09:56:56;;;;;;;20.35;11.22;;;;;;;-1.16;84.91;100319.32;1756639;82;21554;-67
2020/12/22 09:59:24;;;;;;;22.48;13.25;;;;;;;-1.20;84.99;100321.09;1756485;82;21270;-66
2020/12/22 10:01:52;;;;;;;23.00;13.50;;;;;;;-1.26;85.35;100316.83;1756648;82;21148;-67
2020/12/22 10:04:19;;;;;;;24.85;11.63;;;;;;;-1.30;85.63;100316.06;1756395;81;21140;-67
2020/12/22 10:06:50;;;;;;;22.37;12.93;;;;;;;-1.32;85.94;100304.95;1751375;81;21611;-66
2020/12/22 10:09:18;;;;;;;22.90;12.70;;;;;;;-1.42;86.24;100298.27;1748563;81;21306;-66
2020/12/22 10:11:46;;;;;;;26.57;13.90;;;;;;;-1.51;86.86;100294.12;1748716;81;21313;-65
2020/12/22 10:14:15;;;;;;;24.98;13.58;;;;;;;-1.59;87.53;100296.03;1748712;82;21310;-65
2020/12/22 10:16:43;;;;;;;24.55;14.20;;;;;;;-1.67;88.04;100287.83;1748817;82;21275;-66
2020/12/22 10:19:11;;;;;;;28.25;13.85;;;;;;;-1.73;88.55;100284.81;1748621;81;21267;-66
2020/12/22 10:21:38;;;;;;;26.62;14.45;;;;;;;-1.77;88.88;100283.66;1748634;82;21168;-65
2020/12/22 10:24:06;;;;;;;28.87;15.30;;;;;;;-1.71;88.94;100279.47;1748803;82;21129;-65
2020/12/22 10:26:34;;;;;;;25.80;14.63;;;;;;;-1.60;89.06;100275.30;1748780;81;21290;-66
2020/12/22 10:29:03;;;;;;;25.75;14.50;;;;;;;-1.48;88.81;100261.45;1748699;82;21176;-66
2020/12/22 10:31:31;;;;;;;23.65;13.72;;;;;;;-1.39;88.54;100272.31;1748589;82;21219;-65
2020/12/22 10:33:58;;;;;;;22.87;13.43;;;;;;;-1.35;88.69;100261.29;1748522;81;21283;-65
2020/12/22 10:36:27;;;;;;;27.40;15.15;;;;;;;-1.36;88.34;100263.30;1748611;82;21275;-65
2020/12/22 10:38:57;;;;;;;24.65;13.88;;;;;;;-1.34;88.43;100264.70;1748573;81;21160;-66
2020/12/22 10:41:25;;;;;;;30.60;16.75;;;;;;;-1.27;88.32;100260.98;1748644;81;21176;-66
2020/12/22 10:43:53;;;;;;;30.95;17.27;;;;;;;-1.32;88.31;100256.84;1748506;82;21172;-66
2020/12/22 10:46:21;;;;;;;24.72;14.55;;;;;;;-1.30;88.41;100264.16;1748515;81;21173;-65
2020/12/22 10:48:49;;;;;;;29.18;15.00;;;;;;;-1.37;88.35;100259.02;1748490;81;21153;-65
2020/12/22 10:51:17;;;;;;;24.87;13.55;;;;;;;-1.41;88.69;100257.37;1748507;82;21160;-65
2020/12/22 10:53:46;;;;;;;34.83;16.27;;;;;;;-1.42;88.40;100244.23;1748578;82;21295;-66
2020/12/22 10:56:16;;;;;;;28.75;15.53;;;;;;;-1.37;88.83;100248.00;1748624;81;21152;-67
2020/12/22 10:58:44;;;;;;;26.42;15.28;;;;;;;-1.29;88.65;100235.94;1748753;82;21156;-66
2020/12/22 11:01:14;;;;;;;31.25;15.23;;;;;;;-1.31;88.67;100238.34;1748592;81;21168;-65
2020/12/22 11:03:45;;;;;;;30.45;16.05;;;;;;;-1.33;88.88;100240.73;1748826;81;21516;-65
2020/12/22 11:06:28;;;;;;;33.45;16.15;;;;;;;-1.40;89.16;100245.20;1750806;81;21318;-66
2020/12/22 11:08:49;;;;;;;34.58;17.70;;;;;;;-1.42;89.44;100236.63;1755772;81;21267;-65
2020/12/22 11:11:16;;;;;;;28.30;16.97;;;;;;;-1.39;89.59;100243.20;1756471;82;21337;-67
2020/12/22 11:13:44;;;;;;;25.77;14.78;;;;;;;-1.37;89.43;100235.34;1756755;80;21590;-66
2020/12/22 11:16:12;;;;;;;25.92;14.83;;;;;;;-1.27;89.47;100229.32;1756501;82;21129;-65
2020/12/22 11:18:41;;;;;;;29.20;15.03;;;;;;;-1.30;89.26;100223.64;1756468;81;21317;-66
2020/12/22 11:21:12;;;;;;;31.97;16.87;;;;;;;-1.31;89.49;100235.81;1756626;80;21721;-66